Time;durP1;ratioP1;P1;durP2;ratioP2;P2;SDS_P1;SDS_P2;PMS_P1;PMS_P2;Temp;Humidity;BMP_temperature;BMP_pressure;BME280_temperature;BME280_humidity;BME280_pressure;Samples;Min_cycle;Max_cycle;Signal;HPM_P1;HPM_P2
2023/03/19 00:00:54;;;;;;;7.20;2.95;;;;;;;;;;5016613;28;20893;-73
2023/03/19 00:03:20;;;;;;;10.13;3.40;;;;;;;;;;5019569;28;20357;-73
2023/03/19 00:05:52;;;;;;;7.88;3.30;;;;;;;;;;5014081;28;20042;-73
2023/03/19 00:08:18;;;;;;;11.73;3.63;;;;;;;;;;5014978;28;20374;-73
2023/03/19 00:10:45;;;;;;;13.43;3.45;;;;;;;;;;5015006;28;20422;-73
2023/03/19 00:13:11;;;;;;;7.32;3.63;;;;;;;;;;5012873;28;20384;-73
2023/03/19 00:15:37;;;;;;;12.88;3.35;;;;;;;;;;5014785;28;20450;-73
2023/03/19 00:18:05;;;;;;;8.15;3.30;;;;;;;;;;5012997;28;20032;-73
2023/03/19 00:20:31;;;;;;;6.82;3.13;;;;;;;;;;5012325;28;20084;-73
2023/03/19 00:22:56;;;;;;;9.18;3.33;;;;;;;;;;5017854;28;20136;-73
2023/03/19 00:25:23;;;;;;;8.60;3.55;;;;;;;;;;5012697;28;20050;-73
2023/03/19 00:27:49;;;;;;;9.75;4.20;;;;;;;;;;5012436;28;20033;-73
2023/03/19 00:30:15;;;;;;;9.25;3.83;;;;;;;;;;5011702;28;20030;-73
2023/03/19 00:32:41;;;;;;;8.77;4.47;;;;;;;;;;5011608;28;20061;-73
2023/03/19 00:35:07;;;;;;;8.77;3.67;;;;;;;;;;5008584;28;20121;-73
2023/03/19 00:37:37;;;;;;;11.25;4.43;;;;;;;;;;5015568;28;20042;-73
2023/03/19 00:40:03;;;;;;;9.05;3.92;;;;;;;;;;5011923;28;20530;-73
2023/03/19 00:42:30;;;;;;;9.45;4.47;;;;;;;;;;5013957;28;20048;-73
2023/03/19 00:44:56;;;;;;;8.85;4.43;;;;;;;;;;5017915;28;20091;-73
2023/03/19 00:47:22;;;;;;;10.13;4.65;;;;;;;;;;5010144;28;20041;-73
2023/03/19 00:49:48;;;;;;;11.23;4.65;;;;;;;;;;5013151;28;20498;-73
2023/03/19 00:52:15;;;;;;;10.40;5.22;;;;;;;;;;5012884;28;20057;-73
2023/03/19 00:54:41;;;;;;;12.70;5.88;;;;;;;;;;5011762;28;20759;-73
2023/03/19 00:57:07;;;;;;;13.15;5.30;;;;;;;;;;5013184;28;20099;-73
2023/03/19 00:59:33;;;;;;;13.43;5.95;;;;;;;;;;5012163;28;20399;-73
2023/03/19 01:01:59;;;;;;;13.88;6.18;;;;;;;;;;5020796;28;20736;-73
2023/03/19 01:04:25;;;;;;;15.98;7.32;;;;;;;;;;5011961;28;20041;-73
2023/03/19 01:06:51;;;;;;;11.90;6.90;;;;;;;;;;5007324;28;20049;-73
2023/03/19 01:09:17;;;;;;;14.07;7.18;;;;;;;;;;5009227;28;20026;-73
2023/03/19 01:11:43;;;;;;;15.95;7.47;;;;;;;;;;5015079;28;20140;-73
2023/03/19 01:14:10;;;;;;;14.40;6.82;;;;;;;;;;5016048;28;20025;-73
2023/03/19 01:16:36;;;;;;;14.50;6.65;;;;;;;;;;5009473;28;20063;-73
2023/03/19 01:19:02;;;;;;;13.90;6.93;;;;;;;;;;5015067;28;20034;-73
2023/03/19 01:21:29;;;;;;;12.82;7.30;;;;;;;;;;5011231;28;20088;-73
2023/03/19 01:23:56;;;;;;;15.07;7.93;;;;;;;;;;5009322;28;20030;-73
2023/03/19 01:26:22;;;;;;;14.48;6.25;;;;;;;;;;5012373;28;20053;-73
2023/03/19 01:28:48;;;;;;;12.32;6.30;;;;;;;;;;5012095;28;20080;-73
2023/03/19 01:31:15;;;;;;;11.15;5.97;;;;;;;;;;5013548;28;20108;-73
2023/03/19 01:33:41;;;;;;;11.50;6.22;;;;;;;;;;5009502;28;20025;-73
2023/03/19 01:36:08;;;;;;;14.38;6.25;;;;;;;;;;5013258;28;20045;-73
2023/03/19 01:38:34;;;;;;;11.32;5.70;;;;;;;;;;5009054;28;20029;-73
2023/03/19 01:41:00;;;;;;;11.40;5.82;;;;;;;;;;5012683;28;20046;-73
2023/03/19 01:43:28;;;;;;;11.98;4.80;;;;;;;;;;5017524;28;20387;-73
2023/03/19 01:45:59;;;;;;;12.73;5.35;;;;;;;;;;5013422;28;20061;-73
2023/03/19 01:48:40;;;;;;;13.20;5.72;;;;;;;;;;5016591;28;20026;-73
2023/03/19 01:51:07;;;;;;;12.38;5.97;;;;;;;;;;5011068;28;20499;-73
2023/03/19 01:53:34;;;;;;;11.93;5.43;;;;;;;;;;5011614;28;20045;-73
2023/03/19 01:56:31;;;;;;;11.02;5.57;;;;;;;;;;5009538;28;20034;-73
2023/03/19 01:58:59;;;;;;;11.07;5.10;;;;;;;;;;5020101;28;20048;-73
2023/03/19 02:01:26;;;;;;;15.27;6.15;;;;;;;;;;5020865;28;20033;-73
2023/03/19 02:03:53;;;;;;;9.15;4.40;;;;;;;;;;5010846;28;20112;-73
2023/03/19 02:06:20;;;;;;;9.73;4.18;;;;;;;;;;5010315;28;20049;-73
2023/03/19 02:08:47;;;;;;;12.95;4.15;;;;;;;;;;5015994;28;20697;-73
2023/03/19 02:11:13;;;;;;;8.70;4.47;;;;;;;;;;5015921;28;20030;-73
2023/03/19 02:13:39;;;;;;;7.90;4.40;;;;;;;;;;5020463;28;20526;-73
2023/03/19 02:16:05;;;;;;;10.75;4.45;;;;;;;;;;5016325;28;20026;-73
2023/03/19 02:18:31;;;;;;;10.63;4.60;;;;;;;;;;5013864;28;20037;-73
2023/03/19 02:21:00;;;;;;;11.02;5.00;;;;;;;;;;5019190;28;20033;-73
2023/03/19 02:23:26;;;;;;;8.68;3.42;;;;;;;;;;5018718;28;20042;-73
2023/03/19 02:25:52;;;;;;;8.85;2.95;;;;;;;;;;5015227;28;20034;-73
2023/03/19 02:28:19;;;;;;;12.43;3.25;;;;;;;;;;5014939;28;20025;-73
2023/03/19 02:30:45;;;;;;;9.43;3.60;;;;;;;;;;5011363;28;20071;-73
2023/03/19 02:33:16;;;;;;;8.60;3.00;;;;;;;;;;5016884;28;20565;-73
2023/03/19 02:35:44;;;;;;;5.57;2.40;;;;;;;;;;5017702;28;20025;-73
2023/03/19 02:38:11;;;;;;;4.90;1.80;;;;;;;;;;5011344;28;20061;-73
2023/03/19 02:40:39;;;;;;;5.63;1.80;;;;;;;;;;5014568;28;20080;-73
2023/03/19 02:43:05;;;;;;;7.95;2.25;;;;;;;;;;5013234;28;20034;-73
2023/03/19 02:45:31;;;;;;;4.35;2.10;;;;;;;;;;5009225;28;20041;-73
2023/03/19 02:47:57;;;;;;;7.47;2.17;;;;;;;;;;5015768;28;20037;-73
2023/03/19 02:50:23;;;;;;;6.18;1.90;;;;;;;;;;5011151;28;20034;-73
2023/03/19 02:52:50;;;;;;;9.82;3.20;;;;;;;;;;5014482;28;20112;-73
2023/03/19 02:55:17;;;;;;;7.40;2.53;;;;;;;;;;5010270;28;20029;-73
2023/03/19 02:57:43;;;;;;;7.68;3.38;;;;;;;;;;5014248;28;20040;-73
2023/03/19 03:00:10;;;;;;;8.80;2.92;;;;;;;;;;5017698;28;20029;-73
2023/03/19 03:02:37;;;;;;;7.55;3.08;;;;;;;;;;5014335;28;20542;-73
2023/03/19 03:05:03;;;;;;;11.65;3.85;;;;;;;;;;5017392;28;20036;-73
2023/03/19 03:07:29;;;;;;;7.80;3.22;;;;;;;;;;5017708;28;20052;-73
2023/03/19 03:09:56;;;;;;;8.85;3.05;;;;;;;;;;5018579;28;20067;-73
2023/03/19 03:12:22;;;;;;;5.75;2.95;;;;;;;;;;5015668;28;20546;-73
2023/03/19 03:14:48;;;;;;;7.63;2.63;;;;;;;;;;5015477;28;20101;-73
2023/03/19 03:17:14;;;;;;;6.18;2.67;;;;;;;;;;5013706;28;20865;-73
2023/03/19 03:19:40;;;;;;;7.38;2.47;;;;;;;;;;5014849;28;20041;-73
2023/03/19 03:22:07;;;;;;;8.10;2.83;;;;;;;;;;5014983;28;20045;-73
2023/03/19 03:24:33;;;;;;;10.70;3.70;;;;;;;;;;5013548;28;20434;-73
2023/03/19 03:26:59;;;;;;;11.38;3.08;;;;;;;;;;5011588;28;20379;-73
2023/03/19 03:29:25;;;;;;;8.32;3.40;;;;;;;;;;5010709;28;20047;-73
2023/03/19 03:31:51;;;;;;;8.32;3.33;;;;;;;;;;5014817;28;20045;-73
2023/03/19 03:34:18;;;;;;;5.80;2.70;;;;;;;;;;5013701;28;20034;-73
2023/03/19 03:36:45;;;;;;;7.22;2.88;;;;;;;;;;5015190;28;20045;-73
2023/03/19 03:39:12;;;;;;;6.18;2.53;;;;;;;;;;5010092;28;20036;-73
2023/03/19 03:41:38;;;;;;;7.15;3.03;;;;;;;;;;5012359;28;20041;-72
2023/03/19 03:44:04;;;;;;;7.60;3.42;;;;;;;;;;5014931;28;20029;-73
2023/03/19 03:46:31;;;;;;;7.15;2.85;;;;;;;;;;5013964;28;20721;-73
2023/03/19 03:48:57;;;;;;;10.23;2.97;;;;;;;;;;5013869;28;20056;-73
2023/03/19 03:51:23;;;;;;;9.52;2.97;;;;;;;;;;5016797;28;20778;-73
2023/03/19 03:53:49;;;;;;;7.43;2.65;;;;;;;;;;5020106;28;20870;-73
2023/03/19 03:56:15;;;;;;;7.05;2.40;;;;;;;;;;5022332;28;20045;-73
2023/03/19 03:58:41;;;;;;;6.78;2.13;;;;;;;;;;5011434;28;20032;-73
2023/03/19 04:01:07;;;;;;;9.70;2.72;;;;;;;;;;5014504;28;20613;-73
2023/03/19 04:03:33;;;;;;;6.00;2.58;;;;;;;;;;5012961;28;20048;-73
2023/03/19 04:05:59;;;;;;;7.55;2.75;;;;;;;;;;5017743;28;20460;-73
2023/03/19 04:08:25;;;;;;;7.10;2.40;;;;;;;;;;5011161;28;20041;-73
2023/03/19 04:10:51;;;;;;;8.45;2.55;;;;;;;;;;5014397;28;20080;-73
2023/03/19 04:13:17;;;;;;;7.53;2.47;;;;;;;;;;5015340;28;20060;-73
2023/03/19 04:15:44;;;;;;;8.00;2.30;;;;;;;;;;5012639;28;20038;-73
2023/03/19 04:18:10;;;;;;;5.25;1.85;;;;;;;;;;5014220;28;20049;-73
2023/03/19 04:20:36;;;;;;;8.20;2.25;;;;;;;;;;5019446;28;20108;-73
2023/03/19 04:23:02;;;;;;;5.53;2.10;;;;;;;;;;5017562;28;20036;-73
2023/03/19 04:25:28;;;;;;;7.18;2.20;;;;;;;;;;5017241;28;20620;-73
2023/03/19 04:27:56;;;;;;;8.38;2.22;;;;;;;;;;5014125;28;20038;-73
2023/03/19 04:30:22;;;;;;;9.93;3.20;;;;;;;;;;5014912;28;20037;-73
2023/03/19 04:32:48;;;;;;;5.50;2.70;;;;;;;;;;5012098;28;20037;-73
2023/03/19 04:35:14;;;;;;;8.02;2.25;;;;;;;;;;5008041;28;20033;-73
2023/03/19 04:37:42;;;;;;;6.43;2.38;;;;;;;;;;5013011;28;20037;-73
2023/03/19 04:40:08;;;;;;;6.25;2.47;;;;;;;;;;5008208;28;20041;-73
2023/03/19 04:42:34;;;;;;;7.10;2.45;;;;;;;;;;5010155;28;20033;-73
2023/03/19 04:45:00;;;;;;;6.32;2.30;;;;;;;;;;5016453;28;20474;-73
2023/03/19 04:47:26;;;;;;;6.85;2.60;;;;;;;;;;5013434;28;20071;-73
2023/03/19 04:49:52;;;;;;;7.07;2.22;;;;;;;;;;5013445;28;20049;-73
2023/03/19 04:52:18;;;;;;;7.22;2.45;;;;;;;;;;5011683;28;20041;-73
2023/03/19 04:54:44;;;;;;;6.28;2.15;;;;;;;;;;5014905;28;20026;-73
2023/03/19 04:57:11;;;;;;;8.07;2.53;;;;;;;;;;5014753;28;20067;-73
2023/03/19 04:59:37;;;;;;;7.47;2.00;;;;;;;;;;5016180;28;20041;-73
2023/03/19 05:02:03;;;;;;;6.38;2.10;;;;;;;;;;5011964;28;20038;-73
2023/03/19 05:04:29;;;;;;;6.72;2.15;;;;;;;;;;5009564;28;20034;-73
2023/03/19 05:06:56;;;;;;;4.53;1.92;;;;;;;;;;5014138;28;20111;-73
2023/03/19 05:09:22;;;;;;;5.65;2.08;;;;;;;;;;5012443;28;20041;-73
2023/03/19 05:11:48;;;;;;;4.32;1.73;;;;;;;;;;5016965;28;20037;-73
2023/03/19 05:14:14;;;;;;;6.35;2.10;;;;;;;;;;5011377;28;20030;-73
2023/03/19 05:16:40;;;;;;;4.60;2.22;;;;;;;;;;5014742;28;20033;-73
2023/03/19 05:19:06;;;;;;;5.22;2.00;;;;;;;;;;5014211;28;20033;-73
2023/03/19 05:21:32;;;;;;;6.65;2.40;;;;;;;;;;5013188;28;20048;-73
2023/03/19 05:23:58;;;;;;;3.85;1.92;;;;;;;;;;5012232;28;20038;-73
2023/03/19 05:26:24;;;;;;;4.90;1.98;;;;;;;;;;5017486;28;20037;-73
2023/03/19 05:28:50;;;;;;;7.45;2.40;;;;;;;;;;5017476;28;20060;-73
2023/03/19 05:31:16;;;;;;;6.47;2.15;;;;;;;;;;5020337;28;20029;-73
2023/03/19 05:33:42;;;;;;;6.80;2.25;;;;;;;;;;5012901;28;20429;-73
2023/03/19 05:36:08;;;;;;;5.78;2.33;;;;;;;;;;5015214;28;20040;-73
2023/03/19 05:38:34;;;;;;;8.30;2.65;;;;;;;;;;5014467;28;20084;-73
2023/03/19 05:41:04;;;;;;;7.80;2.65;;;;;;;;;;5011759;28;20034;-73
2023/03/19 05:43:31;;;;;;;8.63;2.60;;;;;;;;;;5018111;28;20033;-73
2023/03/19 05:45:57;;;;;;;4.88;1.75;;;;;;;;;;5009802;28;20792;-73
2023/03/19 05:48:24;;;;;;;12.82;2.80;;;;;;;;;;5014786;28;20045;-73
2023/03/19 05:50:51;;;;;;;6.60;2.30;;;;;;;;;;5013990;28;20044;-73
2023/03/19 05:53:17;;;;;;;4.78;2.13;;;;;;;;;;5017268;28;20133;-73
2023/03/19 05:55:43;;;;;;;5.80;2.22;;;;;;;;;;5009143;28;20034;-73
2023/03/19 05:58:10;;;;;;;8.23;2.58;;;;;;;;;;5010685;28;20029;-73
2023/03/19 06:00:36;;;;;;;6.20;2.10;;;;;;;;;;5009028;28;20042;-73
2023/03/19 06:03:02;;;;;;;5.55;2.00;;;;;;;;;;5009420;28;20038;-73
2023/03/19 06:05:28;;;;;;;4.82;1.60;;;;;;;;;;5011557;28;20089;-73
2023/03/19 06:07:54;;;;;;;7.18;2.50;;;;;;;;;;5008707;28;20479;-73
2023/03/19 06:10:21;;;;;;;6.57;2.17;;;;;;;;;;5013982;28;20045;-73
2023/03/19 06:12:47;;;;;;;8.48;2.58;;;;;;;;;;5012765;28;20033;-73
2023/03/19 06:15:13;;;;;;;7.63;2.00;;;;;;;;;;5011289;28;20034;-73
2023/03/19 06:17:39;;;;;;;4.55;1.95;;;;;;;;;;5012829;28;20030;-73
2023/03/19 06:20:05;;;;;;;6.03;2.60;;;;;;;;;;5015302;28;20033;-73
2023/03/19 06:22:31;;;;;;;7.75;2.50;;;;;;;;;;5010910;28;20060;-73
2023/03/19 06:24:57;;;;;;;6.70;2.50;;;;;;;;;;5012634;28;20542;-73
2023/03/19 06:27:23;;;;;;;6.63;2.80;;;;;;;;;;5011568;28;20026;-73
2023/03/19 06:29:49;;;;;;;5.07;2.58;;;;;;;;;;5011495;28;20033;-73
2023/03/19 06:32:15;;;;;;;10.93;2.53;;;;;;;;;;5013890;28;20117;-73
2023/03/19 06:34:41;;;;;;;6.18;2.60;;;;;;;;;;5015171;28;20042;-73
2023/03/19 06:37:07;;;;;;;7.05;2.58;;;;;;;;;;5013830;28;20049;-74
2023/03/19 06:39:33;;;;;;;8.73;2.90;;;;;;;;;;5015679;28;20036;-73
2023/03/19 06:41:59;;;;;;;7.15;2.83;;;;;;;;;;5012924;28;20121;-73
2023/03/19 06:44:26;;;;;;;9.07;2.80;;;;;;;;;;5019895;28;20069;-73
2023/03/19 06:46:52;;;;;;;6.78;2.95;;;;;;;;;;5011887;28;20468;-73
2023/03/19 06:49:18;;;;;;;6.32;2.47;;;;;;;;;;5011270;28;20029;-73
2023/03/19 06:51:44;;;;;;;6.95;2.60;;;;;;;;;;5012653;28;20046;-73
2023/03/19 06:54:10;;;;;;;7.45;2.50;;;;;;;;;;5011719;28;20136;-73
2023/03/19 06:56:36;;;;;;;11.85;3.00;;;;;;;;;;5015671;28;20469;-73
2023/03/19 06:59:02;;;;;;;6.20;2.97;;;;;;;;;;5015770;28;20033;-72
2023/03/19 07:01:28;;;;;;;8.55;3.40;;;;;;;;;;5020903;28;20052;-73
2023/03/19 07:03:56;;;;;;;10.13;3.60;;;;;;;;;;5012255;28;20029;-73
2023/03/19 07:06:22;;;;;;;9.23;3.72;;;;;;;;;;5019413;28;20042;-74
2023/03/19 07:08:48;;;;;;;7.63;4.00;;;;;;;;;;5018159;28;20511;-74
2023/03/19 07:11:15;;;;;;;10.65;4.45;;;;;;;;;;5016847;28;20083;-73
2023/03/19 07:13:41;;;;;;;14.52;6.45;;;;;;;;;;5016537;28;20025;-73
2023/03/19 07:16:08;;;;;;;19.38;9.18;;;;;;;;;;5015038;28;20060;-73
2023/03/19 07:18:34;;;;;;;18.85;10.43;;;;;;;;;;5022145;28;20453;-73
2023/03/19 07:21:00;;;;;;;16.08;9.18;;;;;;;;;;5021920;28;20033;-73
2023/03/19 07:23:26;;;;;;;16.00;6.75;;;;;;;;;;5018142;28;20741;-73
2023/03/19 07:25:52;;;;;;;12.43;4.18;;;;;;;;;;5017810;28;20117;-73
2023/03/19 07:28:18;;;;;;;9.63;4.22;;;;;;;;;;5015042;28;20493;-73
2023/03/19 07:30:44;;;;;;;10.18;4.03;;;;;;;;;;5013874;28;20041;-73
2023/03/19 07:33:10;;;;;;;11.57;4.55;;;;;;;;;;5016506;28;20025;-73
2023/03/19 07:35:36;;;;;;;13.02;6.68;;;;;;;;;;5016614;28;20045;-73
2023/03/19 07:38:02;;;;;;;14.07;7.47;;;;;;;;;;5018975;28;20026;-73
2023/03/19 07:40:28;;;;;;;19.27;9.73;;;;;;;;;;5016155;28;20838;-73
2023/03/19 07:42:54;;;;;;;16.63;9.05;;;;;;;;;;5016728;28;20191;-73
2023/03/19 07:45:20;;;;;;;18.17;8.88;;;;;;;;;;5014430;28;20716;-73
2023/03/19 07:47:46;;;;;;;13.60;7.32;;;;;;;;;;5014468;28;20100;-73
2023/03/19 07:50:12;;;;;;;14.13;7.40;;;;;;;;;;5015930;28;20487;-73
2023/03/19 07:52:38;;;;;;;13.57;6.38;;;;;;;;;;5021228;28;20193;-73
2023/03/19 07:55:05;;;;;;;10.90;5.72;;;;;;;;;;5018491;28;20025;-73
2023/03/19 07:57:31;;;;;;;13.23;4.53;;;;;;;;;;5017532;28;20070;-73
2023/03/19 07:59:58;;;;;;;8.77;4.20;;;;;;;;;;5018172;28;20052;-74
2023/03/19 08:02:24;;;;;;;9.98;5.15;;;;;;;;;;5022615;28;20038;-73
2023/03/19 08:04:50;;;;;;;13.93;6.25;;;;;;;;;;5013040;28;20860;-73
2023/03/19 08:07:16;;;;;;;15.25;5.70;;;;;;;;;;5016999;28;20168;-73
2023/03/19 08:09:43;;;;;;;9.75;5.40;;;;;;;;;;5015668;28;20526;-73
2023/03/19 08:12:09;;;;;;;10.50;3.80;;;;;;;;;;5015708;28;20467;-73
2023/03/19 08:14:35;;;;;;;10.30;4.60;;;;;;;;;;5013261;28;20056;-73
2023/03/19 08:17:01;;;;;;;9.77;3.92;;;;;;;;;;5015059;28;20037;-73
2023/03/19 08:19:27;;;;;;;6.30;2.80;;;;;;;;;;5014831;28;20025;-73
2023/03/19 08:21:53;;;;;;;8.77;4.03;;;;;;;;;;5015517;28;20460;-73
2023/03/19 08:24:19;;;;;;;8.70;4.05;;;;;;;;;;5021023;28;20057;-73
2023/03/19 08:26:45;;;;;;;10.00;3.97;;;;;;;;;;5016910;28;20037;-73
2023/03/19 08:29:11;;;;;;;9.65;3.92;;;;;;;;;;5015509;28;20034;-73
2023/03/19 08:31:37;;;;;;;7.82;3.60;;;;;;;;;;5013753;28;20041;-73
2023/03/19 08:34:03;;;;;;;7.30;3.13;;;;;;;;;;5021870;28;20076;-73
2023/03/19 08:36:30;;;;;;;11.40;4.00;;;;;;;;;;5013444;28;20073;-73
2023/03/19 08:38:57;;;;;;;11.93;4.82;;;;;;;;;;5013885;28;20057;-73
2023/03/19 08:41:24;;;;;;;10.32;4.70;;;;;;;;;;5016016;28;20332;-73
2023/03/19 08:43:50;;;;;;;9.07;3.65;;;;;;;;;;5019313;28;20030;-73
2023/03/19 08:46:16;;;;;;;11.55;3.85;;;;;;;;;;5010061;28;20988;-73
2023/03/19 08:48:42;;;;;;;18.35;3.88;;;;;;;;;;5014970;28;20136;-73
2023/03/19 08:51:08;;;;;;;11.80;3.80;;;;;;;;;;5013887;28;20960;-74
2023/03/19 08:53:34;;;;;;;12.85;4.25;;;;;;;;;;5014107;28;20125;-73
2023/03/19 08:56:02;;;;;;;12.25;4.05;;;;;;;;;;5013375;28;20036;-73
2023/03/19 08:58:28;;;;;;;9.93;3.83;;;;;;;;;;5019112;28;20116;-73
2023/03/19 09:01:01;;;;;;;10.02;3.28;;;;;;;;;;5014421;28;20042;-74
2023/03/19 09:03:27;;;;;;;6.60;2.92;;;;;;;;;;5012659;28;20044;-73
2023/03/19 09:05:57;;;;;;;6.30;2.70;;;;;;;;;;5014785;28;20041;-73
2023/03/19 09:08:23;;;;;;;7.80;2.92;;;;;;;;;;5017429;28;20076;-73
2023/03/19 09:10:49;;;;;;;7.97;3.65;;;;;;;;;;5013402;28;20038;-73
2023/03/19 09:13:15;;;;;;;10.10;3.08;;;;;;;;;;5014052;28;20412;-73
2023/03/19 09:15:41;;;;;;;12.30;3.70;;;;;;;;;;5013016;28;20414;-73
2023/03/19 09:18:07;;;;;;;11.27;3.15;;;;;;;;;;5011807;28;20033;-73
2023/03/19 09:20:33;;;;;;;7.75;2.95;;;;;;;;;;5015754;28;20038;-73
2023/03/19 09:22:59;;;;;;;9.18;3.50;;;;;;;;;;5008586;28;20038;-73
2023/03/19 09:25:25;;;;;;;8.35;3.10;;;;;;;;;;5017785;28;20040;-73
2023/03/19 09:27:51;;;;;;;9.23;2.80;;;;;;;;;;5012297;28;20037;-73
2023/03/19 09:30:17;;;;;;;7.97;2.67;;;;;;;;;;5017302;28;20029;-73
2023/03/19 09:32:43;;;;;;;5.53;2.05;;;;;;;;;;5010837;28;20060;-73
2023/03/19 09:35:09;;;;;;;8.05;3.25;;;;;;;;;;5013357;28;20108;-73
2023/03/19 09:37:35;;;;;;;8.05;2.60;;;;;;;;;;5015201;28;20864;-73
2023/03/19 09:40:01;;;;;;;10.05;2.80;;;;;;;;;;5013299;28;20798;-73
2023/03/19 09:42:30;;;;;;;7.68;2.65;;;;;;;;;;5013068;28;20038;-73
2023/03/19 09:44:56;;;;;;;7.05;2.50;;;;;;;;;;5016682;28;20033;-73
2023/03/19 09:47:33;;;;;;;8.52;3.08;;;;;;;;;;5019312;28;20050;-73
2023/03/19 09:50:00;;;;;;;6.65;3.00;;;;;;;;;;5013191;28;20490;-73
2023/03/19 09:52:27;;;;;;;7.40;2.70;;;;;;;;;;5016285;28;20025;-73
2023/03/19 09:54:55;;;;;;;7.90;3.10;;;;;;;;;;5017597;28;20772;-74
2023/03/19 09:57:22;;;;;;;9.30;2.70;;;;;;;;;;5013060;28;20647;-73
2023/03/19 09:59:48;;;;;;;9.57;2.78;;;;;;;;;;5014150;28;20037;-73
2023/03/19 10:02:29;;;;;;;12.85;2.90;;;;;;;;;;5013293;28;20038;-73
2023/03/19 10:05:07;;;;;;;8.60;3.05;;;;;;;;;;5013167;28;20109;-73
2023/03/19 10:07:42;;;;;;;8.30;2.72;;;;;;;;;;5011301;28;20033;-73
2023/03/19 10:10:27;;;;;;;8.10;2.70;;;;;;;;;;5014495;28;20026;-73
2023/03/19 10:13:02;;;;;;;8.30;3.05;;;;;;;;;;5013811;28;20311;-73
2023/03/19 10:15:29;;;;;;;6.65;3.22;;;;;;;;;;5015258;28;20033;-73
2023/03/19 10:17:55;;;;;;;8.15;3.45;;;;;;;;;;5017162;28;20104;-73
2023/03/19 10:20:50;;;;;;;7.70;2.97;;;;;;;;;;5017212;28;20128;-73
2023/03/19 10:23:32;;;;;;;7.18;2.85;;;;;;;;;;5049252;28;20509;-74
2023/03/19 10:25:59;;;;;;;12.43;3.47;;;;;;;;;;5017525;28;20153;-74
2023/03/19 10:28:27;;;;;;;10.02;3.33;;;;;;;;;;5014557;28;20051;-72
2023/03/19 10:30:59;;;;;;;8.95;3.28;;;;;;;;;;5017512;28;20026;-73
2023/03/19 10:33:31;;;;;;;7.03;2.90;;;;;;;;;;5015486;28;20033;-73
2023/03/19 10:36:00;;;;;;;9.45;3.58;;;;;;;;;;5020585;28;20072;-73
2023/03/19 10:38:26;;;;;;;6.93;2.72;;;;;;;;;;5016370;28;20036;-72
2023/03/19 10:41:11;;;;;;;8.80;2.75;;;;;;;;;;5015385;28;20109;-73
2023/03/19 10:43:39;;;;;;;11.55;4.25;;;;;;;;;;5018616;28;20034;-73
2023/03/19 10:46:05;;;;;;;10.05;3.38;;;;;;;;;;5014828;28;20129;-74
2023/03/19 10:48:32;;;;;;;11.43;4.03;;;;;;;;;;5013952;28;20036;-74
2023/03/19 10:51:03;;;;;;;8.65;3.13;;;;;;;;;;5016528;28;20085;-74
2023/03/19 10:53:30;;;;;;;10.10;3.97;;;;;;;;;;5016436;28;20033;-74
2023/03/19 10:55:59;;;;;;;8.25;3.80;;;;;;;;;;5023634;28;20051;-73
2023/03/19 10:58:26;;;;;;;10.90;3.53;;;;;;;;;;5019521;28;20025;-74
2023/03/19 11:01:04;;;;;;;9.02;3.72;;;;;;;;;;5014544;28;20072;-73
2023/03/19 11:03:30;;;;;;;8.45;3.85;;;;;;;;;;5015878;28;20049;-74
2023/03/19 11:06:06;;;;;;;11.65;3.63;;;;;;;;;;5013154;28;20022;-73
2023/03/19 11:08:35;;;;;;;7.20;3.35;;;;;;;;;;5015499;28;20502;-74
2023/03/19 11:11:01;;;;;;;8.50;3.83;;;;;;;;;;5015003;28;20030;-74
2023/03/19 11:13:27;;;;;;;9.20;4.32;;;;;;;;;;5014614;28;20041;-74
2023/03/19 11:15:56;;;;;;;10.25;4.13;;;;;;;;;;5015750;28;20668;-73
2023/03/19 11:18:24;;;;;;;9.65;4.28;;;;;;;;;;5014335;28;20130;-73
2023/03/19 11:21:01;;;;;;;9.93;4.53;;;;;;;;;;5016130;28;20037;-73
2023/03/19 11:23:31;;;;;;;11.13;4.78;;;;;;;;;;5015824;28;20033;-73
2023/03/19 11:26:03;;;;;;;13.45;4.88;;;;;;;;;;5015302;28;20166;-73
2023/03/19 11:28:32;;;;;;;9.77;3.95;;;;;;;;;;5009243;28;20874;-73
2023/03/19 11:31:02;;;;;;;8.32;4.40;;;;;;;;;;5018123;28;20026;-73
2023/03/19 11:33:36;;;;;;;11.27;4.90;;;;;;;;;;5014337;28;20022;-73
2023/03/19 11:36:12;;;;;;;18.92;7.40;;;;;;;;;;5015062;28;20029;-73
2023/03/19 11:38:50;;;;;;;11.93;5.15;;;;;;;;;;5017258;28;20022;-73
2023/03/19 11:41:42;;;;;;;9.90;3.90;;;;;;;;;;5015753;28;20395;-73
2023/03/19 11:44:44;;;;;;;7.85;3.97;;;;;;;;;;5015836;28;20046;-73
2023/03/19 11:47:12;;;;;;;16.55;4.93;;;;;;;;;;5043201;28;20049;-73
2023/03/19 11:49:57;;;;;;;11.57;4.38;;;;;;;;;;5018151;28;20826;-73
2023/03/19 11:52:32;;;;;;;11.48;4.15;;;;;;;;;;5012146;28;20036;-73
2023/03/19 11:55:15;;;;;;;7.22;3.30;;;;;;;;;;5014406;28;20029;-73
2023/03/19 11:58:00;;;;;;;12.07;3.78;;;;;;;;;;5016012;28;20034;-73
2023/03/19 12:00:26;;;;;;;10.13;4.00;;;;;;;;;;5021257;28;20702;-73
2023/03/19 12:03:05;;;;;;;9.70;4.32;;;;;;;;;;5015630;28;20496;-73
2023/03/19 12:05:35;;;;;;;14.80;5.07;;;;;;;;;;5014159;28;20046;-73
2023/03/19 12:08:13;;;;;;;12.57;4.38;;;;;;;;;;5014801;28;20608;-73
2023/03/19 12:10:42;;;;;;;13.73;4.70;;;;;;;;;;5010827;28;20048;-73
2023/03/19 12:13:30;;;;;;;9.85;4.72;;;;;;;;;;5015812;28;20778;-73
2023/03/19 12:16:07;;;;;;;15.27;5.00;;;;;;;;;;5017482;28;20104;-73
2023/03/19 12:18:40;;;;;;;14.55;4.65;;;;;;;;;;5015612;28;20501;-72
2023/03/19 12:21:11;;;;;;;13.02;5.22;;;;;;;;;;5013210;28;20463;-73
2023/03/19 12:23:46;;;;;;;14.23;5.38;;;;;;;;;;5012092;28;20022;-73
2023/03/19 12:26:12;;;;;;;12.35;6.57;;;;;;;;;;5013406;28;20037;-72
2023/03/19 12:28:58;;;;;;;11.27;5.20;;;;;;;;;;5013689;28;20146;-74
2023/03/19 12:31:36;;;;;;;9.90;4.88;;;;;;;;;;5013815;28;20048;-73
2023/03/19 12:34:11;;;;;;;13.38;5.78;;;;;;;;;;5013285;28;20109;-72
2023/03/19 12:36:45;;;;;;;15.50;6.07;;;;;;;;;;5010581;28;20064;-73
2023/03/19 12:39:15;;;;;;;8.55;4.63;;;;;;;;;;5011878;28;20060;-72
2023/03/19 12:41:43;;;;;;;12.10;5.22;;;;;;;;;;5015614;28;20554;-72
2023/03/19 12:44:09;;;;;;;9.90;4.13;;;;;;;;;;5021714;28;20041;-72
2023/03/19 12:46:35;;;;;;;7.43;4.10;;;;;;;;;;5016621;28;20109;-72
2023/03/19 12:49:10;;;;;;;10.45;4.47;;;;;;;;;;5020082;28;20072;-72
2023/03/19 12:51:39;;;;;;;13.15;4.70;;;;;;;;;;5014742;28;20033;-73
2023/03/19 12:54:05;;;;;;;12.15;4.20;;;;;;;;;;5014375;28;20021;-72
2023/03/19 12:56:31;;;;;;;7.22;4.00;;;;;;;;;;5016131;28;20455;-73
2023/03/19 12:59:23;;;;;;;10.77;4.65;;;;;;;;;;5013301;28;20076;-73
2023/03/19 13:01:53;;;;;;;10.07;4.68;;;;;;;;;;5021504;28;20124;-73
2023/03/19 13:04:33;;;;;;;9.00;4.82;;;;;;;;;;5014876;28;20025;-73
2023/03/19 13:07:05;;;;;;;11.73;4.57;;;;;;;;;;5007302;28;20037;-73
2023/03/19 13:09:36;;;;;;;12.63;4.40;;;;;;;;;;5011939;28;20075;-73
2023/03/19 13:12:09;;;;;;;14.38;4.80;;;;;;;;;;5009501;28;20063;-73
2023/03/19 13:14:54;;;;;;;10.43;4.53;;;;;;;;;;5010723;28;20702;-74
2023/03/19 13:17:40;;;;;;;14.95;5.25;;;;;;;;;;5010582;28;20037;-73
2023/03/19 13:20:29;;;;;;;15.95;7.00;;;;;;;;;;5017606;28;20052;-73
2023/03/19 13:22:56;;;;;;;11.93;5.30;;;;;;;;;;5011472;28;20100;-73
2023/03/19 13:25:29;;;;;;;16.90;8.85;;;;;;;;;;5014523;28;20045;-73
2023/03/19 13:27:55;;;;;;;14.98;6.85;;;;;;;;;;5012062;28;20472;-73
2023/03/19 13:30:22;;;;;;;9.30;4.70;;;;;;;;;;5018646;28;20025;-73
2023/03/19 13:32:53;;;;;;;11.25;5.60;;;;;;;;;;5013550;28;20071;-73
2023/03/19 13:35:22;;;;;;;9.88;4.40;;;;;;;;;;5012109;28;20029;-73
2023/03/19 13:37:50;;;;;;;15.00;4.95;;;;;;;;;;5010021;28;20042;-73
2023/03/19 13:40:37;;;;;;;10.68;4.55;;;;;;;;;;5016692;28;20375;-73
2023/03/19 13:43:03;;;;;;;9.05;4.40;;;;;;;;;;5013704;28;20025;-73
2023/03/19 13:45:36;;;;;;;12.48;4.55;;;;;;;;;;5017440;28;20053;-73
2023/03/19 13:48:40;;;;;;;7.40;4.32;;;;;;;;;;5012676;28;20034;-72
2023/03/19 13:51:18;;;;;;;8.88;4.13;;;;;;;;;;5019667;28;20088;-72
2023/03/19 13:53:54;;;;;;;12.00;4.65;;;;;;;;;;5016345;28;20515;-72
2023/03/19 13:56:22;;;;;;;9.07;2.58;;;;;;;;;;5017153;28;20046;-73
2023/03/19 13:58:52;;;;;;;5.03;1.92;;;;;;;;;;5013886;28;20026;-73
2023/03/19 14:01:24;;;;;;;11.88;5.20;;;;;;;;;;5013207;28;20030;-73
2023/03/19 14:03:52;;;;;;;;;;;;;;;;;;5018057;28;20097;-73
2023/03/19 14:06:37;;;;;;;5.72;3.20;;;;;;;;;;5018234;28;19939;-73
2023/03/19 14:09:04;;;;;;;5.30;1.85;;;;;;;;;;5013740;28;20468;-73
2023/03/19 14:11:35;;;;;;;6.88;2.20;;;;;;;;;;5020017;28;20443;-73
2023/03/19 14:14:03;;;;;;;4.60;2.03;;;;;;;;;;5015919;28;20033;-73
2023/03/19 14:16:31;;;;;;;3.72;1.88;;;;;;;;;;5020008;28;20033;-72
2023/03/19 14:19:00;;;;;;;4.55;1.58;;;;;;;;;;5014313;28;20145;-73
2023/03/19 14:21:42;;;;;;;3.90;1.60;;;;;;;;;;5014619;28;20055;-73
2023/03/19 14:24:08;;;;;;;;;;;;;;;;;;5019626;28;20515;-73
2023/03/19 14:26:34;;;;;;;5.47;1.60;;;;;;;;;;5015224;28;20056;-73
2023/03/19 14:29:07;;;;;;;5.28;1.20;;;;;;;;;;5016411;28;20032;-72
2023/03/19 14:31:33;;;;;;;12.77;2.03;;;;;;;;;;5019163;28;20423;-72
2023/03/19 14:34:02;;;;;;;6.18;2.25;;;;;;;;;;5010857;28;20022;-73
2023/03/19 14:36:29;;;;;;;5.82;2.00;;;;;;;;;;5020007;28;20038;-72
2023/03/19 14:39:02;;;;;;;6.45;1.92;;;;;;;;;;5016869;28;20029;-73
2023/03/19 14:41:32;;;;;;;5.07;1.55;;;;;;;;;;5021797;28;20075;-73
2023/03/19 14:44:07;;;;;;;4.68;1.50;;;;;;;;;;5014913;28;20628;-73
2023/03/19 14:46:42;;;;;;;5.65;1.73;;;;;;;;;;5016992;28;20089;-73